• Join FlightAware (Why Join?)
  • Login
  • US Flag 
01:38AM EST


 

Airport Tracker/Info


-or-


 

Live Flight TrackerFlight Track Log ✈ DAL6034 ✈ 16-May-2013 ✈ KLGA - KMHT

Flight Track Log - Related Links

Times and Time Zones

All times are in EDT time to prevent confusion due to time zone crossing. See the DAL6034 flight status page for this flight to view local times or setup timezone preferences in your user account.

Time Position Orientation Groundspeed Altitude Reporting Facility
EDT Latitude Longitude Course Direction KTS MPH feet Rate Location/Type
07:36PM 40.7667 -73.8000 33° Northeast 196 226 2,100  Level New York TRACON
07:38PM 40.8167 -73.7500 37° Northeast 237 273 4,100 2,100 Climbing New York TRACON
07:39PM 40.8667 -73.7000 37° Northeast 273 314 6,500 2,400 Climbing New York TRACON
07:39PM 40.9333 -73.6500 30° Northeast 264 304 8,800 1,620 Climbing New York TRACON
07:42PM 41.2322 -73.4968 33° Northeast  Level FlightAware Approximate
07:42PM 41.1050 -73.5475 24° Northeast 296 341 12,000  Level Boston Center
07:43PM 41.1950 -73.4939 24° Northeast 339 390 13,400 1,260 Climbing Boston Center
07:44PM 41.2853 -73.4372 25° Northeast 348 400 14,600 1,260 Climbing Boston Center
07:45PM 41.3775 -73.3806 25° Northeast 353 406 16,000 1,080 Climbing Boston Center
07:46PM 41.4633 -73.3264 25° Northeast 375 432 16,800 480 Climbing Boston Center
07:47PM 41.5536 -73.2194 42° Northeast 381 438 17,000 60 Climbing Boston Center
07:48PM 41.6272 -73.1233 44° Northeast 397 457 17,000  Level Boston Center
07:49PM 41.7339 -73.0408 30° Northeast 403 464 17,000  Level Boston Center
07:50PM 41.8303 -72.9750 27° Northeast 395 455 17,000  Level Boston Center
07:51PM 41.9264 -72.9061 28° Northeast 395 455 17,000  Level Boston Center
07:52PM 42.0433 -72.8231 28° Northeast 388 447 17,000 -60 Level Boston Center
07:53PM 42.1417 -72.7536 28° Northeast 394 453 16,900 -480 Descending Boston Center
07:54PM 42.2292 -72.6925 27° Northeast 385 443 16,000 -900 Descending Boston Center
07:55PM 42.3481 -72.6086 28° Northeast 369 425 15,000 -540 Descending Boston Center
07:56PM 42.4336 -72.5300 34° Northeast 369 425 15,000 -120 Level Boston Center
07:57PM 42.5025 -72.4203 50° Northeast 369 425 14,800 -1,020 Descending Boston Center
07:58PM 42.5711 -72.3133 49° Northeast 369 425 13,000 -1,800 Descending Boston Center
07:59PM 42.6275 -72.2256 49° Northeast 352 405 11,200 -1,440 Descending Boston Center
08:00PM 42.6753 -72.1519 49° Northeast 334 384 10,200 -1,080 Descending Boston Center
08:01PM 42.7414 -72.0472 49° Northeast 307 353 9,100 -900 Descending Boston Center
08:02PM 42.7847 -71.9308 63° Northeast 302 348 8,500 -900 Descending Boston Center
08:03PM 42.8031 -71.8233 77° East 313 360 7,300 -1,320 Descending Boston Center
08:04PM 42.8106 -71.6986 85° East 313 360 5,900 -1,320 Descending Boston Center
08:05PM 42.8058 -71.5967 94° East 307 353 4,700 -1,020 Descending Boston Center
08:06PM 42.8006 -71.4808 94° East 289 333 3,900 -1,140 Descending Boston Center
08:07PM 42.8144 -71.4014 77° East 248 285 2,500 -1,020 Descending Boston Center
08:08PM 42.8539 -71.3864 16° North 141 162 1,700 -780 Descending Boston Center
08:09PM 42.8958 -71.4142 334° Northwest 128 147 900 -660 Descending Boston Center
08:10PM 42.9317 -71.4333 339° North 133 153 400 4,020 Descending Boston Center
08:11PM 42.9672 -71.4528 338° Northwest 133 153 9,000 4,260 Climbing Boston Center
08:12PM 43.0050 -71.4747 337° Northwest 133 153 9,000  Level Boston Center
08:13PM 43.0406 -71.4942 338° Northwest 133 153 9,000  Level Boston Center
08:15PM 42.9593 -71.4501 164° South  Level Estimated
08:22PM 42.9328 -71.4358 164° South  Level Estimated
08:23PM 42.9328 -71.4358 164° South  Level Estimated
08:24PM 42.9328 -71.4358 164° South  Level Estimated
08:25PM 42.9328 -71.4358 164° South  Level Estimated
08:26PM 42.9328 -71.4358 164° South  Level Estimated